createdAt,value
2022-10-22T00:00:17.953Z,37.05
2022-10-22T00:02:45.401Z,29.27
2022-10-22T00:05:12.757Z,33.83
2022-10-22T00:07:40.662Z,32.80
2022-10-22T00:10:08.941Z,30.92
2022-10-22T00:12:36.146Z,28.98
2022-10-22T00:15:05.386Z,29.48
2022-10-22T00:17:32.778Z,25.23
2022-10-22T00:20:00.051Z,30.55
2022-10-22T00:22:27.175Z,26.25
2022-10-22T00:24:54.376Z,25.60
2022-10-22T00:27:21.983Z,25.73
2022-10-22T00:29:49.184Z,27.13
2022-10-22T00:32:16.457Z,25.88
2022-10-22T00:34:43.686Z,26.52
2022-10-22T00:37:11.218Z,23.35
2022-10-22T00:39:38.530Z,27.10
2022-10-22T00:42:05.786Z,26.77
2022-10-22T00:45:10.095Z,22.00
2022-10-22T00:47:41.626Z,23.15
2022-10-22T00:50:27.466Z,27.67
2022-10-22T00:52:56.485Z,29.55
2022-10-22T00:55:25.798Z,31.33
2022-10-22T00:57:58.249Z,28.73
2022-10-22T01:00:25.877Z,32.15
2022-10-22T01:02:54.524Z,26.38
2022-10-22T01:05:22.047Z,28.67
2022-10-22T01:07:52.424Z,28.85
2022-10-22T01:13:09.488Z,31.20
2022-10-22T01:15:54.277Z,30.67
2022-10-22T01:18:38.333Z,30.83
2022-10-22T01:21:38.272Z,30.45
2022-10-22T01:24:49.575Z,26.05
2022-10-22T01:27:25.779Z,34.33
2022-10-22T01:30:05.495Z,28.63
2022-10-22T01:32:40.294Z,32.85
2022-10-22T01:35:12.534Z,31.73
2022-10-22T01:37:51.814Z,34.83
2022-10-22T01:40:21.274Z,37.90
2022-10-22T01:42:58.653Z,32.13
2022-10-22T01:45:26.415Z,36.17
2022-10-22T01:48:02.537Z,32.88
2022-10-22T01:50:44.258Z,34.97
2022-10-22T01:53:35.586Z,35.03
2022-10-22T01:56:17.492Z,31.55
2022-10-22T01:59:09.397Z,33.45
2022-10-22T02:01:55.296Z,36.85
2022-10-22T02:04:43.039Z,35.75
2022-10-22T02:07:14.295Z,36.13
2022-10-22T02:09:44.207Z,33.95
2022-10-22T02:12:12.084Z,36.97
2022-10-22T02:14:43.445Z,37.63
2022-10-22T02:17:16.695Z,33.97
2022-10-22T02:19:51.864Z,38.47
2022-10-22T02:22:20.133Z,34.38
2022-10-22T02:24:49.817Z,34.72
2022-10-22T02:27:42.904Z,38.10
2022-10-22T02:30:11.153Z,38.63
2022-10-22T02:33:12.044Z,37.78
2022-10-22T02:35:42.146Z,36.72
2022-10-22T02:38:10.855Z,35.80
2022-10-22T02:40:38.537Z,42.95
2022-10-22T02:43:06.352Z,36.63
2022-10-22T02:45:35.015Z,37.45
2022-10-22T02:48:02.413Z,36.13
2022-10-22T02:50:29.812Z,37.00
2022-10-22T02:52:57.015Z,37.35
2022-10-22T02:55:24.386Z,31.00
2022-10-22T02:57:51.693Z,32.50
2022-10-22T03:00:19.343Z,38.53
2022-10-22T03:02:46.629Z,39.78
2022-10-22T03:05:13.855Z,42.50
2022-10-22T03:07:41.291Z,35.03
2022-10-22T03:10:09.347Z,41.92
2022-10-22T03:12:36.503Z,40.08
2022-10-22T03:15:04.418Z,46.53
2022-10-22T03:17:31.463Z,35.92
2022-10-22T03:19:58.574Z,42.58
2022-10-22T03:22:29.788Z,40.38
2022-10-22T03:25:01.031Z,37.17
2022-10-22T03:27:29.771Z,34.35
2022-10-22T03:29:58.258Z,36.88
2022-10-22T03:32:25.619Z,46.85
2022-10-22T03:34:52.868Z,40.97
2022-10-22T03:37:20.674Z,37.50
2022-10-22T03:39:48.409Z,38.38
2022-10-22T03:42:16.673Z,45.60
2022-10-22T03:44:44.386Z,39.78
2022-10-22T03:47:12.744Z,47.70
2022-10-22T03:49:39.900Z,39.15
2022-10-22T03:52:08.505Z,40.38
2022-10-22T03:57:05.984Z,42.10
2022-10-22T03:59:44.064Z,49.33
2022-10-22T04:02:13.057Z,41.13
2022-10-22T04:04:40.646Z,49.10
2022-10-22T04:07:08.516Z,51.22
2022-10-22T04:09:36.299Z,51.78
2022-10-22T04:12:05.894Z,45.88
2022-10-22T04:14:33.185Z,50.20
2022-10-22T04:17:00.374Z,38.38
2022-10-22T04:19:27.633Z,43.85
2022-10-22T04:21:54.823Z,35.55
2022-10-22T04:24:22.005Z,40.95
2022-10-22T04:26:49.303Z,42.42
2022-10-22T04:29:16.615Z,37.90
2022-10-22T04:31:43.953Z,38.17
2022-10-22T04:34:11.297Z,43.15
2022-10-22T04:36:38.419Z,45.05
2022-10-22T04:39:06.935Z,38.88
2022-10-22T04:41:36.855Z,36.33
2022-10-22T04:44:04.945Z,39.08
2022-10-22T04:46:34.448Z,45.55
2022-10-22T04:49:04.304Z,45.97
2022-10-22T04:51:32.655Z,37.33
2022-10-22T04:53:59.821Z,43.17
2022-10-22T04:56:29.930Z,41.63
2022-10-22T04:58:58.056Z,36.92
2022-10-22T05:01:31.396Z,44.55
2022-10-22T05:04:01.664Z,45.03
2022-10-22T05:06:30.937Z,37.65
2022-10-22T05:09:01.371Z,37.70
2022-10-22T05:11:31.455Z,35.60
2022-10-22T05:14:00.938Z,42.67
2022-10-22T05:16:29.685Z,34.50
2022-10-22T05:18:58.926Z,52.88
2022-10-22T05:21:26.574Z,53.63
2022-10-22T05:23:55.257Z,44.45
2022-10-22T05:26:24.184Z,45.40
2022-10-22T05:28:52.215Z,43.15
2022-10-22T05:31:20.465Z,44.22
2022-10-22T05:33:48.175Z,45.00
2022-10-22T05:36:18.379Z,40.75
2022-10-22T05:38:46.332Z,53.05
2022-10-22T05:41:17.824Z,48.17
2022-10-22T05:43:45.288Z,41.75
2022-10-22T05:46:22.439Z,36.85
2022-10-22T05:48:55.687Z,47.25
2022-10-22T05:51:24.716Z,44.20
2022-10-22T05:53:57.655Z,44.72
2022-10-22T05:56:26.382Z,49.53
2022-10-22T05:58:54.407Z,43.65
2022-10-22T06:01:30.197Z,37.63
2022-10-22T06:03:59.665Z,43.70
2022-10-22T06:06:34.423Z,48.53
2022-10-22T06:09:11.737Z,43.53
2022-10-22T06:11:39.418Z,35.28
2022-10-22T06:14:06.584Z,47.03
2022-10-22T06:16:34.084Z,45.15
2022-10-22T06:19:04.424Z,48.80
2022-10-22T06:24:00.228Z,49.03
2022-10-22T06:26:27.542Z,45.38
2022-10-22T06:28:56.605Z,40.25
2022-10-22T06:31:27.302Z,35.35
2022-10-22T06:33:55.024Z,37.55
2022-10-22T06:36:24.067Z,35.42
2022-10-22T06:38:55.686Z,36.33
2022-10-22T06:41:27.068Z,31.17
2022-10-22T06:43:57.808Z,40.17
2022-10-22T06:46:26.323Z,31.15
2022-10-22T06:48:59.087Z,31.95
2022-10-22T06:51:27.950Z,31.73
2022-10-22T06:53:57.053Z,39.28
2022-10-22T06:56:27.384Z,36.33
2022-10-22T07:01:25.881Z,41.08
2022-10-22T07:03:54.466Z,40.35
2022-10-22T07:06:24.448Z,43.85
2022-10-22T07:08:52.683Z,38.22
2022-10-22T07:11:40.695Z,41.08
2022-10-22T07:14:08.068Z,37.33
2022-10-22T07:16:35.417Z,36.00
2022-10-22T07:19:03.948Z,36.35
2022-10-22T07:21:31.988Z,33.65
2022-10-22T07:23:59.661Z,37.72
2022-10-22T07:26:31.312Z,33.55
2022-10-22T07:29:00.094Z,41.45
2022-10-22T07:31:27.695Z,40.78
2022-10-22T07:33:54.814Z,33.50
2022-10-22T07:36:22.454Z,32.25
2022-10-22T07:38:55.754Z,33.50
2022-10-22T07:41:23.936Z,36.83
2022-10-22T07:43:51.130Z,33.72
2022-10-22T07:46:18.700Z,37.22
2022-10-22T07:48:46.288Z,33.88
2022-10-22T07:51:16.005Z,34.28
2022-10-22T07:53:43.495Z,34.42
2022-10-22T07:56:11.064Z,27.55
2022-10-22T07:58:38.226Z,35.45
2022-10-22T08:01:08.252Z,35.75
2022-10-22T08:03:35.855Z,30.10
2022-10-22T08:06:04.129Z,36.42
2022-10-22T08:08:31.950Z,33.00
2022-10-22T08:11:00.853Z,29.77
2022-10-22T08:13:30.924Z,37.67
2022-10-22T08:16:00.534Z,28.30
2022-10-22T08:18:28.217Z,33.97
2022-10-22T08:20:55.795Z,31.60
2022-10-22T08:23:26.071Z,33.22
2022-10-22T08:25:56.816Z,33.30
2022-10-22T08:28:24.218Z,32.70
2022-10-22T08:30:51.496Z,29.05
2022-10-22T08:33:18.814Z,30.95
2022-10-22T08:35:53.576Z,35.67
2022-10-22T08:38:21.308Z,33.80
2022-10-22T08:40:53.419Z,40.22
2022-10-22T08:43:47.075Z,37.78
2022-10-22T08:46:38.765Z,44.38
2022-10-22T08:49:13.153Z,42.63
2022-10-22T08:51:40.846Z,31.55
2022-10-22T08:54:28.378Z,46.42
2022-10-22T08:57:18.799Z,35.58
2022-10-22T09:02:48.693Z,34.25
2022-10-22T09:05:27.657Z,37.00
2022-10-22T09:07:55.895Z,37.67
2022-10-22T09:10:28.329Z,33.83
2022-10-22T09:12:55.864Z,34.45
2022-10-22T09:15:23.204Z,38.90
2022-10-22T09:18:08.575Z,39.70
2022-10-22T09:20:47.204Z,39.63
2022-10-22T09:23:23.177Z,39.92
2022-10-22T09:25:53.024Z,38.13
2022-10-22T09:28:20.225Z,42.45
2022-10-22T09:30:47.692Z,37.88
2022-10-22T09:33:24.776Z,41.72
2022-10-22T09:36:03.966Z,35.13
2022-10-22T09:38:34.372Z,41.03
2022-10-22T09:43:32.754Z,39.67
2022-10-22T09:46:06.374Z,36.88
2022-10-22T09:48:41.667Z,40.35
2022-10-22T09:51:20.736Z,37.08
2022-10-22T09:54:00.376Z,36.60
2022-10-22T09:56:36.376Z,37.50
2022-10-22T09:59:04.026Z,40.03
2022-10-22T10:01:41.185Z,34.33
2022-10-22T10:04:11.055Z,34.20
2022-10-22T10:06:40.705Z,39.85
2022-10-22T10:09:20.056Z,35.50
2022-10-22T10:11:57.493Z,40.50
2022-10-22T10:14:50.593Z,33.67
2022-10-22T10:18:01.026Z,35.50
2022-10-22T10:20:52.545Z,37.13
2022-10-22T10:23:41.416Z,35.67
2022-10-22T10:26:19.734Z,32.90
2022-10-22T10:28:46.781Z,37.58
2022-10-22T10:31:33.264Z,36.92
2022-10-22T10:34:40.853Z,35.00
2022-10-22T10:37:25.280Z,36.42
2022-10-22T10:40:11.028Z,39.47
2022-10-22T10:43:10.106Z,41.35
2022-10-22T10:45:56.015Z,40.17
2022-10-22T10:48:47.327Z,39.88
2022-10-22T10:51:31.263Z,36.30
2022-10-22T10:54:01.936Z,34.45
2022-10-22T10:56:51.017Z,39.28
2022-10-22T10:59:39.485Z,37.65
2022-10-22T11:02:28.337Z,43.88
2022-10-22T11:05:15.320Z,33.85
2022-10-22T11:07:50.981Z,35.25
2022-10-22T11:10:51.014Z,38.10
2022-10-22T11:13:37.579Z,43.08
2022-10-22T11:16:21.418Z,35.97
2022-10-22T11:19:15.523Z,39.97
2022-10-22T11:22:08.654Z,37.63
2022-10-22T11:24:52.454Z,39.05
2022-10-22T11:27:30.369Z,39.85
2022-10-22T11:30:19.253Z,42.60
2022-10-22T11:32:55.477Z,35.80
2022-10-22T11:35:26.795Z,40.75
2022-10-22T11:37:57.111Z,37.72
2022-10-22T11:43:05.678Z,38.63
2022-10-22T11:45:39.778Z,44.33
2022-10-22T11:48:19.136Z,40.28
2022-10-22T11:50:48.664Z,39.22
2022-10-22T11:53:21.347Z,40.17
2022-10-22T11:55:51.776Z,34.70
2022-10-22T11:58:44.996Z,44.30
2022-10-22T12:01:12.128Z,38.47
2022-10-22T12:03:53.265Z,37.15
2022-10-22T12:06:24.564Z,39.45
2022-10-22T12:08:54.806Z,35.22
2022-10-22T12:14:30.253Z,31.52
2022-10-22T12:17:10.116Z,25.13
2022-10-22T12:19:47.724Z,26.80
2022-10-22T12:22:26.582Z,24.98
2022-10-22T12:24:55.749Z,21.65
2022-10-22T12:27:30.425Z,28.90
2022-10-22T12:29:59.965Z,22.05
2022-10-22T12:32:36.375Z,29.03
2022-10-22T12:35:09.564Z,19.77
2022-10-22T12:37:38.089Z,22.67
2022-10-22T12:40:23.614Z,21.70
2022-10-22T12:43:21.344Z,17.30
2022-10-22T12:45:50.897Z,27.73
2022-10-22T12:48:39.499Z,17.97
2022-10-22T12:51:09.865Z,19.17
2022-10-22T12:56:22.618Z,28.20
2022-10-22T12:58:58.106Z,17.92
2022-10-22T13:01:28.059Z,24.20
2022-10-22T13:04:29.009Z,19.45
2022-10-22T13:07:18.269Z,23.17
2022-10-22T13:09:58.943Z,16.17
2022-10-22T13:12:28.674Z,17.95
2022-10-22T13:14:55.885Z,20.75
2022-10-22T13:17:41.421Z,15.25
2022-10-22T13:20:27.015Z,16.60
2022-10-22T13:23:00.476Z,19.30
2022-10-22T13:25:30.646Z,19.10
2022-10-22T13:28:04.538Z,16.67
2022-10-22T13:30:37.583Z,20.63
2022-10-22T13:33:18.274Z,20.20
2022-10-22T13:35:45.654Z,14.65
2022-10-22T13:38:19.985Z,17.20
2022-10-22T13:40:48.097Z,20.45
2022-10-22T13:43:16.274Z,21.42
2022-10-22T13:45:47.817Z,16.08
2022-10-22T13:48:22.115Z,14.20
2022-10-22T13:50:50.544Z,12.55
2022-10-22T13:53:26.535Z,14.10
2022-10-22T13:55:53.855Z,10.55
2022-10-22T13:58:26.101Z,14.25
2022-10-22T14:00:57.399Z,14.25
2022-10-22T14:03:34.986Z,10.82
2022-10-22T14:06:02.402Z,13.57
2022-10-22T14:08:29.864Z,14.93
2022-10-22T14:10:57.338Z,16.17
2022-10-22T14:13:24.555Z,19.40
2022-10-22T14:15:53.047Z,19.05
2022-10-22T14:18:31.928Z,21.95
2022-10-22T14:21:10.647Z,19.88
2022-10-22T14:23:37.996Z,21.70
2022-10-22T14:26:07.414Z,20.45
2022-10-22T14:28:41.292Z,22.08
2022-10-22T14:31:13.535Z,23.08
2022-10-22T14:33:41.280Z,18.27
2022-10-22T14:36:13.029Z,20.30
2022-10-22T14:38:40.493Z,19.05
2022-10-22T14:41:24.934Z,20.33
2022-10-22T14:43:53.024Z,20.40
2022-10-22T14:46:20.394Z,22.20
2022-10-22T14:48:47.742Z,18.27
2022-10-22T14:51:20.617Z,18.10
2022-10-22T14:53:48.615Z,19.20
2022-10-22T14:56:18.477Z,19.63
2022-10-22T14:58:46.136Z,19.67
2022-10-22T15:01:13.464Z,19.70
2022-10-22T15:03:40.786Z,19.13
2022-10-22T15:06:08.473Z,20.13
2022-10-22T15:08:36.048Z,19.73
2022-10-22T15:11:04.660Z,20.20
2022-10-22T15:13:32.643Z,24.08
2022-10-22T15:16:00.337Z,22.30
2022-10-22T15:18:28.669Z,28.02
2022-10-22T15:21:01.347Z,24.55
2022-10-22T15:23:29.573Z,23.75
2022-10-22T15:25:57.607Z,25.00
2022-10-22T15:28:25.816Z,27.35
2022-10-22T15:30:55.060Z,26.60
2022-10-22T15:33:22.234Z,27.75
2022-10-22T15:35:49.516Z,24.63
2022-10-22T15:38:16.919Z,34.08
2022-10-22T15:40:44.093Z,33.72
2022-10-22T15:43:11.578Z,29.80
2022-10-22T15:45:39.469Z,26.80
2022-10-22T15:48:06.950Z,29.23
2022-10-22T15:50:38.475Z,29.73
2022-10-22T15:53:06.258Z,27.73
2022-10-22T15:55:33.473Z,33.85
2022-10-22T15:58:03.350Z,29.83
2022-10-22T16:00:30.817Z,28.42
2022-10-22T16:02:58.006Z,26.00
2022-10-22T16:05:27.693Z,27.30
2022-10-22T16:07:56.753Z,29.80
2022-10-22T16:10:24.826Z,28.83
2022-10-22T16:12:54.394Z,32.03
2022-10-22T16:15:21.577Z,26.83
2022-10-22T16:17:48.738Z,27.23
2022-10-22T16:20:16.012Z,29.23
2022-10-22T16:22:43.529Z,28.35
2022-10-22T16:25:10.781Z,29.77
2022-10-22T16:27:39.497Z,31.75
2022-10-22T16:30:07.238Z,28.65
2022-10-22T16:32:34.592Z,26.38
2022-10-22T16:35:02.054Z,28.77
2022-10-22T16:37:29.407Z,25.15
2022-10-22T16:39:56.768Z,29.13
2022-10-22T16:42:23.977Z,29.42
2022-10-22T16:44:51.363Z,28.15
2022-10-22T16:47:18.778Z,29.55
2022-10-22T16:49:46.137Z,30.48
2022-10-22T16:52:13.542Z,29.52
2022-10-22T16:54:40.814Z,29.90
2022-10-22T16:57:08.185Z,32.50
2022-10-22T16:59:35.458Z,30.40
2022-10-22T17:04:34.817Z,31.45
2022-10-22T17:07:01.977Z,31.65
2022-10-22T17:09:29.175Z,37.20
2022-10-22T17:11:56.496Z,32.47
2022-10-22T17:14:23.894Z,35.22
2022-10-22T17:16:54.186Z,36.50
2022-10-22T17:19:24.432Z,36.53
2022-10-22T17:21:53.785Z,36.92
2022-10-22T17:24:21.484Z,37.38
2022-10-22T17:26:48.894Z,35.08
2022-10-22T17:29:17.235Z,38.88
2022-10-22T17:31:44.564Z,40.67
2022-10-22T17:34:16.968Z,41.50
2022-10-22T17:36:45.088Z,41.78
2022-10-22T17:39:16.726Z,46.63
2022-10-22T17:41:44.036Z,45.15
2022-10-22T17:44:12.757Z,47.25
2022-10-22T17:46:40.009Z,47.35
2022-10-22T17:49:16.607Z,47.97
2022-10-22T17:51:44.207Z,40.25
2022-10-22T17:54:12.294Z,45.00
2022-10-22T17:56:43.115Z,42.30
2022-10-22T17:59:13.919Z,47.45
2022-10-22T18:01:45.773Z,47.03
2022-10-22T18:04:18.951Z,46.90
2022-10-22T18:06:47.692Z,48.03
2022-10-22T18:09:19.451Z,42.58
2022-10-22T18:11:48.657Z,40.83
2022-10-22T18:14:17.850Z,41.90
2022-10-22T18:16:46.368Z,44.90
2022-10-22T18:19:17.328Z,46.00
2022-10-22T18:21:45.306Z,45.22
2022-10-22T18:24:14.224Z,45.85
2022-10-22T18:26:41.969Z,45.95
2022-10-22T18:29:11.208Z,43.92
2022-10-22T18:31:38.600Z,46.28
2022-10-22T18:34:05.866Z,47.97
2022-10-22T18:36:33.093Z,48.47
2022-10-22T18:39:03.128Z,44.25
2022-10-22T18:41:32.048Z,42.53
2022-10-22T18:44:01.858Z,41.03
2022-10-22T18:46:30.357Z,42.95
2022-10-22T18:48:59.030Z,37.45
2022-10-22T18:51:30.581Z,42.22
2022-10-22T18:54:05.247Z,37.75
2022-10-22T18:56:33.132Z,38.33
2022-10-22T18:59:00.329Z,45.80
2022-10-22T19:01:29.681Z,40.17
2022-10-22T19:03:57.547Z,36.53
2022-10-22T19:06:34.412Z,37.17
2022-10-22T19:09:04.820Z,35.20
2022-10-22T19:11:32.955Z,38.85
2022-10-22T19:14:00.168Z,38.10
2022-10-22T19:16:28.708Z,35.75
2022-10-22T19:19:04.742Z,38.95
2022-10-22T19:21:32.368Z,34.95
2022-10-22T19:24:01.265Z,34.40
2022-10-22T19:26:30.012Z,35.03
2022-10-22T19:28:58.735Z,37.47
2022-10-22T19:31:27.531Z,34.42
2022-10-22T19:33:55.595Z,35.53
2022-10-22T19:36:29.035Z,33.13
2022-10-22T19:38:56.986Z,36.40
2022-10-22T19:41:26.409Z,34.22
2022-10-22T19:43:55.879Z,34.03
2022-10-22T19:46:24.285Z,34.63
2022-10-22T19:48:52.576Z,31.77
2022-10-22T19:51:22.616Z,34.88
2022-10-22T19:53:50.907Z,35.97
2022-10-22T19:56:21.415Z,36.95
2022-10-22T19:58:48.681Z,35.60
2022-10-22T20:01:17.866Z,35.90
2022-10-22T20:03:45.714Z,36.42
2022-10-22T20:06:15.888Z,33.97
2022-10-22T20:08:43.186Z,39.00
2022-10-22T20:11:16.488Z,37.78
2022-10-22T20:13:45.510Z,37.05
2022-10-22T20:16:18.820Z,38.92
2022-10-22T20:18:46.037Z,40.55
2022-10-22T20:21:15.217Z,43.53
2022-10-22T20:23:43.256Z,41.88
2022-10-22T20:26:10.687Z,40.50
2022-10-22T20:28:39.006Z,44.08
2022-10-22T20:31:15.937Z,44.75
2022-10-22T20:33:43.248Z,44.17
2022-10-22T20:36:16.446Z,47.53
2022-10-22T20:38:43.886Z,45.85
2022-10-22T20:41:14.306Z,43.30
2022-10-22T20:46:18.616Z,41.78
2022-10-22T20:48:46.336Z,47.03
2022-10-22T20:51:13.996Z,46.60
2022-10-22T20:53:41.354Z,43.88
2022-10-22T20:56:08.925Z,47.85
2022-10-22T20:58:36.425Z,45.13
2022-10-22T21:01:10.503Z,46.92
2022-10-22T21:03:38.247Z,44.83
2022-10-22T21:06:06.895Z,48.35
2022-10-22T21:08:34.313Z,46.42
2022-10-22T21:11:01.705Z,49.10
2022-10-22T21:13:32.079Z,49.42
2022-10-22T21:18:27.286Z,44.03
2022-10-22T21:20:54.530Z,49.72
2022-10-22T21:23:21.884Z,51.22
2022-10-22T21:25:56.767Z,51.33
2022-10-22T21:28:25.125Z,50.05
2022-10-22T21:30:52.465Z,49.65
2022-10-22T21:33:19.825Z,46.97
2022-10-22T21:35:52.424Z,50.75
2022-10-22T21:38:20.820Z,50.10
2022-10-22T21:40:48.074Z,48.63
2022-10-22T21:43:16.428Z,45.67
2022-10-22T21:45:44.114Z,47.58
2022-10-22T21:48:13.908Z,45.67
2022-10-22T21:50:42.567Z,46.03
2022-10-22T21:53:11.053Z,46.10
2022-10-22T21:55:42.024Z,49.67
2022-10-22T21:58:09.433Z,50.33
2022-10-22T22:00:36.905Z,48.90
2022-10-22T22:03:07.627Z,48.47
2022-10-22T22:05:34.850Z,46.13
2022-10-22T22:08:02.092Z,46.03
2022-10-22T22:10:30.224Z,47.40
2022-10-22T22:12:57.403Z,49.72
2022-10-22T22:15:24.584Z,44.22
2022-10-22T22:17:51.716Z,41.45
2022-10-22T22:20:19.142Z,41.47
2022-10-22T22:22:46.537Z,41.67
2022-10-22T22:25:13.753Z,41.63
2022-10-22T22:27:41.400Z,42.38
2022-10-22T22:30:09.686Z,44.05
2022-10-22T22:32:37.047Z,42.25
2022-10-22T22:35:04.507Z,44.53
2022-10-22T22:37:31.939Z,43.42
2022-10-22T22:39:59.215Z,45.95
2022-10-22T22:42:26.412Z,45.58
2022-10-22T22:44:53.679Z,43.45
2022-10-22T22:47:20.839Z,44.55
2022-10-22T22:49:48.040Z,44.03
2022-10-22T22:52:15.226Z,48.55
2022-10-22T22:54:42.480Z,46.30
2022-10-22T22:57:09.774Z,45.20
2022-10-22T22:59:37.084Z,42.85
2022-10-22T23:02:04.177Z,43.47
2022-10-22T23:04:31.828Z,43.28
2022-10-22T23:06:59.287Z,41.90
2022-10-22T23:09:26.490Z,49.55
2022-10-22T23:11:53.761Z,41.97
2022-10-22T23:14:21.062Z,45.13
2022-10-22T23:16:51.586Z,39.53
2022-10-22T23:19:21.675Z,40.53
2022-10-22T23:21:54.537Z,41.78
2022-10-22T23:24:25.888Z,43.90
2022-10-22T23:26:54.604Z,38.47
2022-10-22T23:29:23.264Z,44.83
2022-10-22T23:31:51.164Z,39.30
2022-10-22T23:34:22.066Z,46.15
2022-10-22T23:36:50.215Z,48.28
2022-10-22T23:39:19.897Z,51.88
2022-10-22T23:41:47.217Z,41.08
2022-10-22T23:44:14.972Z,46.70
2022-10-22T23:46:42.345Z,43.58
2022-10-22T23:49:11.067Z,48.00
2022-10-22T23:51:39.377Z,44.80
2022-10-22T23:54:10.835Z,46.15
2022-10-22T23:56:38.076Z,51.63
2022-10-22T23:59:05.986Z,42.72
